Niigata Airport
RJSN : now visible

Airfield :











YOU CAN JOIN US ON...

 
LOGIN :

Register | Disclaimer

   EN    FR    IT 

 









Legend :    VFR   Marginal VFR   IFR   Intensive IFR   Very Intensive IFR
Visi :
Ceiling :
>= 8 km
>= 3000ft
5 to 8 km
1000 to 3000 ft
1500m to 5 km
500 to 1000 ft
800 to 1500m
200 to 500 ft
< 800m
< 200 ft
Symbols :   Thunderstorms  Fog  Heavy snow  Heavy precipitations  Wind > 20 kt






- Airport Elevation : 29 ft
- IATA code : KIJ


RJSN - Niigata

CURRENT METAR :
  • 231700Z AUTO 16006KT 9999 NCD 19/14 Q1007

EXPIRED METARs :
  • 231600Z AUTO 19002KT 9999 NCD 19/14 Q1008
  • 231500Z AUTO 17004KT 9999 NCD 19/15 Q1008
  • 231400Z AUTO 15003KT 9999 NCD 19/14 Q1009
  • 231300Z AUTO 02002KT 9999 NCD 19/15 Q1009

TAF TAF RJSN
Valid from the 23 at 18:00 until the 25 at 00:00 UTC


231713Z 2318/2500 24010KT 9999 FEW020 SCT050
BECMG 2404/2406 33014KT
RJJJ FIR / Asia



MET'MAP, your aeronautical weather chart ! - Copyright ORBIFLY December 2007 - Disclaimer

ORBIFLY MET'MAP TEAM :

Programming & Development : Alexandra Zaïnal
Original concept : Baudouin d'Aumeries
Technical & hardware support : Manuel Goepfert
Assistance : Marc-Olivier Méhu




SOURCES & CREDITS :

   NOAA       Earth
Advisory